createdAt,value
2019-03-17T00:02:13.831Z,5.60
2019-03-17T00:04:47.125Z,5.50
2019-03-17T00:07:23.561Z,5.50
2019-03-17T00:09:56.932Z,5.60
2019-03-17T00:12:31.451Z,5.60
2019-03-17T00:15:06.552Z,5.60
2019-03-17T00:17:41.823Z,5.60
2019-03-17T00:20:14.959Z,5.60
2019-03-17T00:22:48.378Z,5.60
2019-03-17T00:28:13.264Z,5.60
2019-03-17T00:30:46.546Z,5.60
2019-03-17T00:33:19.835Z,5.50
2019-03-17T00:35:53.115Z,5.40
2019-03-17T00:38:26.396Z,5.40
2019-03-17T00:41:21.860Z,5.40
2019-03-17T00:43:55.204Z,5.40
2019-03-17T00:46:28.570Z,5.40
2019-03-17T00:49:02.876Z,5.50
2019-03-17T00:51:36.282Z,5.50
2019-03-17T00:54:09.571Z,5.50
2019-03-17T00:56:42.826Z,5.50
2019-03-17T00:59:16.239Z,5.60
2019-03-17T01:01:49.642Z,5.60
2019-03-17T01:04:23.867Z,5.60
2019-03-17T01:06:57.199Z,5.60
2019-03-17T01:09:30.685Z,5.60
2019-03-17T01:12:04.323Z,5.60
2019-03-17T01:14:37.727Z,5.70
2019-03-17T01:17:10.984Z,5.70
2019-03-17T01:19:44.265Z,5.70
2019-03-17T01:22:17.573Z,5.70
2019-03-17T01:24:50.822Z,5.70
2019-03-17T01:27:24.070Z,5.80
2019-03-17T01:29:57.682Z,5.80
2019-03-17T01:32:30.913Z,5.80
2019-03-17T01:35:09.502Z,5.90
2019-03-17T01:37:42.265Z,5.90
2019-03-17T01:40:16.553Z,6.00
2019-03-17T01:42:49.947Z,6.00
2019-03-17T01:45:24.495Z,6.00
2019-03-17T01:47:57.901Z,6.10
2019-03-17T01:50:31.346Z,6.10
2019-03-17T01:53:04.633Z,6.10
2019-03-17T01:55:37.938Z,6.20
2019-03-17T01:58:11.269Z,6.10
2019-03-17T02:00:45.092Z,6.10
2019-03-17T02:03:18.373Z,6.10
2019-03-17T02:05:51.717Z,6.10
2019-03-17T02:08:25.017Z,6.20
2019-03-17T02:10:58.372Z,6.20
2019-03-17T02:13:31.716Z,6.20
2019-03-17T02:16:05.036Z,6.20
2019-03-17T02:18:38.294Z,6.20
2019-03-17T03:33:28.788Z,6.70
2019-03-17T03:36:10.850Z,6.70
2019-03-17T03:38:37.065Z,6.70
2019-03-17T03:41:10.407Z,6.70
2019-03-17T03:43:43.693Z,6.80
2019-03-17T03:46:17.048Z,6.80
2019-03-17T03:48:50.445Z,6.80
2019-03-17T03:51:24.985Z,6.80
2019-03-17T03:53:58.345Z,6.80
2019-03-17T03:56:32.603Z,6.90
2019-03-17T03:59:05.951Z,6.90
2019-03-17T04:01:39.194Z,6.90
2019-03-17T04:04:13.437Z,6.90
2019-03-17T04:06:46.679Z,6.90
2019-03-17T04:09:20.009Z,6.90
2019-03-17T04:11:53.343Z,6.90
2019-03-17T04:14:26.645Z,6.90
2019-03-17T04:16:59.889Z,6.90
2019-03-17T04:19:33.203Z,6.90
2019-03-17T04:22:06.551Z,6.90
2019-03-17T04:24:40.054Z,6.90
2019-03-17T04:27:13.417Z,6.80
2019-03-17T04:29:46.696Z,6.80
2019-03-17T04:32:20.047Z,6.80
2019-03-17T04:34:53.488Z,6.80
2019-03-17T04:37:26.676Z,6.80
2019-03-17T04:40:00.613Z,6.80
2019-03-17T04:42:33.973Z,6.80
2019-03-17T04:45:08.665Z,6.80
2019-03-17T04:47:42.025Z,6.80
2019-03-17T04:50:15.470Z,6.80
2019-03-17T04:52:50.016Z,6.80
2019-03-17T04:55:23.302Z,6.80
2019-03-17T04:57:56.620Z,6.70
2019-03-17T05:22:25.244Z,7.00
2019-03-17T05:24:58.611Z,6.90
2019-03-17T05:27:31.902Z,7.00
2019-03-17T05:30:07.961Z,7.00
2019-03-17T05:32:41.256Z,7.00
2019-03-17T05:35:14.533Z,7.10
2019-03-17T05:37:48.612Z,7.10
2019-03-17T05:40:21.860Z,7.20
2019-03-17T05:46:20.962Z,7.30
2019-03-17T05:48:54.353Z,7.30
2019-03-17T05:51:29.122Z,7.40
2019-03-17T05:54:02.404Z,7.40
2019-03-17T05:56:42.319Z,7.40
2019-03-17T05:59:11.811Z,7.50
2019-03-17T06:01:45.011Z,7.50
2019-03-17T06:04:18.321Z,7.50
2019-03-17T06:06:51.551Z,7.50
2019-03-17T06:09:26.735Z,7.50
2019-03-17T06:12:07.721Z,7.60
2019-03-17T06:14:41.005Z,7.60
2019-03-17T06:17:14.273Z,7.70
2019-03-17T06:19:49.025Z,7.80
2019-03-17T06:22:22.376Z,7.80
2019-03-17T06:24:55.671Z,7.80
2019-03-17T06:27:33.941Z,7.90
2019-03-17T06:30:13.839Z,7.90
2019-03-17T06:32:48.022Z,8.00
2019-03-17T06:35:21.465Z,8.10
2019-03-17T06:44:44.761Z,8.20
2019-03-17T06:47:18.162Z,8.30
2019-03-17T06:49:53.285Z,8.30
2019-03-17T06:55:36.381Z,8.30
2019-03-17T06:58:15.343Z,8.40
2019-03-17T07:00:47.092Z,8.40
2019-03-17T07:03:21.532Z,8.40
2019-03-17T07:19:31.338Z,8.80
2019-03-17T07:22:04.695Z,9.00
2019-03-17T07:24:43.303Z,9.20
2019-03-17T07:27:18.264Z,9.30
2019-03-17T07:29:51.618Z,9.50
2019-03-17T07:36:02.387Z,9.90
2019-03-17T07:38:35.731Z,10.10
2019-03-17T07:41:09.064Z,10.10
2019-03-17T07:43:42.423Z,10.20
2019-03-17T07:46:16.657Z,10.00
2019-03-17T07:48:50.715Z,10.00
2019-03-17T07:51:24.074Z,10.00
2019-03-17T07:53:57.422Z,10.10
2019-03-17T07:59:21.131Z,10.30
2019-03-17T08:01:57.232Z,10.40
2019-03-17T08:04:41.962Z,10.40
2019-03-17T08:07:06.983Z,10.30
2019-03-17T08:09:51.153Z,10.30
2019-03-17T08:12:24.476Z,10.30
2019-03-17T08:14:58.006Z,10.40
2019-03-17T08:17:31.284Z,10.50
2019-03-17T08:20:04.976Z,10.60
2019-03-17T08:22:38.375Z,10.80
2019-03-17T08:25:13.844Z,10.80
2019-03-17T08:27:47.151Z,10.80
2019-03-17T08:30:20.522Z,10.80
2019-03-17T08:32:53.871Z,10.90
2019-03-17T08:35:27.126Z,10.90
2019-03-17T08:38:00.415Z,11.00
2019-03-17T08:40:33.705Z,11.10
2019-03-17T08:43:06.945Z,11.20
2019-03-17T08:45:45.873Z,11.30
2019-03-17T08:48:19.271Z,11.20
2019-03-17T08:50:52.564Z,11.20
2019-03-17T08:53:25.912Z,11.10
2019-03-17T08:55:59.214Z,11.20
2019-03-17T08:58:32.521Z,11.20
2019-03-17T09:01:09.853Z,11.30
2019-03-17T09:03:43.290Z,11.40
2019-03-17T09:06:16.664Z,11.40
2019-03-17T09:08:51.671Z,11.50
2019-03-17T09:11:25.076Z,11.60
2019-03-17T09:13:59.296Z,11.60
2019-03-17T09:16:32.543Z,11.40
2019-03-17T09:19:12.303Z,11.70
2019-03-17T09:21:41.013Z,11.80
2019-03-17T09:24:17.383Z,11.90
2019-03-17T09:26:49.411Z,12.00
2019-03-17T09:29:22.717Z,12.00
2019-03-17T09:31:56.163Z,11.90
2019-03-17T09:34:29.574Z,11.90
2019-03-17T09:37:02.935Z,12.00
2019-03-17T09:39:37.334Z,12.10
2019-03-17T09:42:11.220Z,12.30
2019-03-17T09:44:44.686Z,12.40
2019-03-17T09:47:17.948Z,12.70
2019-03-17T09:49:51.345Z,12.80
2019-03-17T09:52:25.211Z,12.90
2019-03-17T09:55:01.375Z,13.20
2019-03-17T09:57:34.631Z,13.20
2019-03-17T10:00:18.225Z,13.20
2019-03-17T10:02:52.748Z,13.10
2019-03-17T10:05:27.724Z,13.20
2019-03-17T10:08:01.125Z,13.40
2019-03-17T10:10:34.540Z,13.60
2019-03-17T10:13:08.055Z,13.60
2019-03-17T10:15:41.455Z,13.70
2019-03-17T10:18:14.819Z,13.80
2019-03-17T10:20:48.239Z,13.80
2019-03-17T10:23:23.221Z,13.80
2019-03-17T10:25:57.855Z,14.00
2019-03-17T10:28:34.892Z,14.10
2019-03-17T10:31:06.855Z,14.20
2019-03-17T10:33:40.133Z,14.10
2019-03-17T10:36:13.416Z,14.20
2019-03-17T10:38:46.912Z,14.30
2019-03-17T10:41:21.740Z,14.50
2019-03-17T10:43:55.104Z,14.50
2019-03-17T10:46:28.482Z,14.60
2019-03-17T10:49:03.457Z,14.70
2019-03-17T10:51:36.885Z,14.80
2019-03-17T10:54:14.788Z,14.90
2019-03-17T10:56:48.080Z,15.10
2019-03-17T10:59:23.437Z,15.20
2019-03-17T11:01:56.793Z,15.30
2019-03-17T11:04:30.083Z,15.40
2019-03-17T11:07:04.480Z,15.50
2019-03-17T11:09:37.835Z,15.50
2019-03-17T11:12:11.091Z,15.70
2019-03-17T11:14:44.416Z,16.00
2019-03-17T11:17:17.686Z,16.00
2019-03-17T11:19:51.009Z,16.20
2019-03-17T11:22:24.308Z,16.10
2019-03-17T11:24:57.653Z,16.30
2019-03-17T11:27:31.083Z,16.40
2019-03-17T11:30:15.225Z,16.50
2019-03-17T11:32:48.557Z,16.60
2019-03-17T11:35:21.833Z,16.50
2019-03-17T11:37:55.155Z,16.70
2019-03-17T11:40:30.620Z,16.80
2019-03-17T11:43:11.962Z,17.00
2019-03-17T11:45:39.857Z,17.10
2019-03-17T11:48:21.236Z,17.20
2019-03-17T11:50:57.222Z,17.30
2019-03-17T11:56:15.263Z,17.60
2019-03-17T12:01:52.200Z,17.60
2019-03-17T12:04:26.791Z,17.70
2019-03-17T12:07:00.131Z,18.00
2019-03-17T12:09:33.525Z,18.10
2019-03-17T12:12:08.652Z,18.30
2019-03-17T12:14:46.013Z,18.30
2019-03-17T12:17:19.262Z,18.50
2019-03-17T12:19:52.654Z,18.60
2019-03-17T12:22:25.974Z,18.60
2019-03-17T12:24:59.361Z,18.70
2019-03-17T12:27:32.646Z,18.40
2019-03-17T12:30:15.563Z,18.50
2019-03-17T12:32:49.626Z,18.50
2019-03-17T12:35:23.092Z,18.80
2019-03-17T12:37:56.436Z,18.70
2019-03-17T12:40:30.986Z,18.70
2019-03-17T12:43:04.294Z,18.70
2019-03-17T12:45:37.574Z,18.70
2019-03-17T12:48:10.999Z,18.60
2019-03-17T12:50:44.388Z,18.60
2019-03-17T12:53:17.692Z,18.40
2019-03-17T12:55:50.978Z,18.50
2019-03-17T12:58:24.285Z,18.40
2019-03-17T13:00:57.689Z,18.40
2019-03-17T13:03:31.005Z,18.50
2019-03-17T13:06:04.691Z,18.40
2019-03-17T13:08:38.012Z,18.50
2019-03-17T13:11:11.325Z,18.40
2019-03-17T13:13:47.139Z,18.50
2019-03-17T13:16:21.116Z,18.70
2019-03-17T13:18:54.432Z,18.60
2019-03-17T13:21:27.853Z,18.80
2019-03-17T13:24:01.105Z,19.10
2019-03-17T13:26:34.556Z,19.00
2019-03-17T13:29:07.911Z,19.30
2019-03-17T13:31:41.178Z,19.40
2019-03-17T13:34:14.561Z,19.60
2019-03-17T13:36:47.964Z,19.60
2019-03-17T13:39:21.334Z,19.90
2019-03-17T13:41:54.709Z,19.50
2019-03-17T13:44:27.991Z,19.50
2019-03-17T13:47:01.407Z,19.50
2019-03-17T13:49:34.633Z,19.60
2019-03-17T13:52:09.245Z,19.70
2019-03-17T13:54:43.482Z,19.40
2019-03-17T13:57:16.706Z,19.40
2019-03-17T13:59:51.658Z,19.30
2019-03-17T14:02:25.064Z,19.40
2019-03-17T14:04:58.355Z,19.30
2019-03-17T14:07:33.271Z,19.30
2019-03-17T14:10:13.967Z,19.30
2019-03-17T14:12:47.465Z,19.30
2019-03-17T14:15:20.842Z,19.30
2019-03-17T14:17:54.115Z,19.20
2019-03-17T14:20:27.394Z,19.20
2019-03-17T14:23:00.641Z,19.10
2019-03-17T14:25:37.249Z,19.00
2019-03-17T14:28:10.502Z,19.00
2019-03-17T14:30:43.787Z,19.10
2019-03-17T14:33:17.165Z,19.00
2019-03-17T14:35:50.483Z,19.00
2019-03-17T14:38:23.851Z,19.10
2019-03-17T14:40:57.434Z,19.00
2019-03-17T14:43:30.868Z,19.00
2019-03-17T14:46:04.192Z,19.00
2019-03-17T14:48:37.433Z,19.10
2019-03-17T14:51:12.184Z,19.10
2019-03-17T14:53:45.511Z,19.10
2019-03-17T14:56:18.747Z,19.10
2019-03-17T14:58:52.094Z,19.10
2019-03-17T15:01:25.344Z,19.10
2019-03-17T15:04:01.422Z,19.10
2019-03-17T15:06:34.793Z,19.00
2019-03-17T15:09:08.849Z,18.80
2019-03-17T15:11:44.411Z,18.90
2019-03-17T15:14:17.722Z,18.80
2019-03-17T15:16:51.131Z,18.70
2019-03-17T15:19:27.460Z,18.70
2019-03-17T15:22:00.687Z,18.60
2019-03-17T15:24:34.995Z,18.60
2019-03-17T15:27:08.476Z,18.70
2019-03-17T15:29:43.103Z,18.50
2019-03-17T15:32:16.482Z,18.50
2019-03-17T15:34:51.083Z,18.40
2019-03-17T15:37:24.361Z,18.30
2019-03-17T15:39:59.151Z,18.30
2019-03-17T15:42:32.483Z,18.20
2019-03-17T15:45:09.653Z,18.10
2019-03-17T15:47:44.040Z,18.00
2019-03-17T15:50:22.535Z,18.10
2019-03-17T15:52:55.818Z,18.00
2019-03-17T15:55:29.180Z,17.90
2019-03-17T15:58:03.709Z,17.90
2019-03-17T16:00:37.079Z,17.70
2019-03-17T16:03:10.419Z,17.60
2019-03-17T16:05:45.674Z,17.50
2019-03-17T16:08:19.225Z,17.50
2019-03-17T16:10:52.556Z,17.40
2019-03-17T16:13:27.357Z,17.40
2019-03-17T16:16:00.753Z,17.20
2019-03-17T16:18:34.110Z,17.10
2019-03-17T16:21:09.057Z,17.00
2019-03-17T16:23:42.439Z,16.80
2019-03-17T16:26:15.856Z,16.60
2019-03-17T16:28:49.208Z,16.50
2019-03-17T16:31:22.534Z,16.60
2019-03-17T16:33:56.824Z,16.30
2019-03-17T16:36:30.210Z,16.30
2019-03-17T16:39:04.275Z,16.40
2019-03-17T16:41:43.270Z,16.20
2019-03-17T16:44:12.551Z,16.40
2019-03-17T16:46:45.802Z,16.00
2019-03-17T16:49:19.004Z,16.10
2019-03-17T16:51:52.324Z,15.80
2019-03-17T16:54:25.668Z,15.60
2019-03-17T16:56:59.060Z,15.70
2019-03-17T16:59:32.497Z,15.60
2019-03-17T17:02:05.869Z,15.40
2019-03-17T17:04:39.243Z,15.20
2019-03-17T17:07:12.556Z,15.10
2019-03-17T17:09:45.803Z,15.00
2019-03-17T17:12:19.114Z,14.80
2019-03-17T17:14:52.467Z,14.70
2019-03-17T17:17:25.789Z,14.50
2019-03-17T17:19:59.167Z,14.30
2019-03-17T17:22:32.604Z,14.00
2019-03-17T17:25:08.910Z,13.80
2019-03-17T17:27:42.264Z,13.50
2019-03-17T17:30:20.249Z,13.40
2019-03-17T17:32:53.604Z,13.40
2019-03-17T17:35:28.029Z,13.30
2019-03-17T17:38:01.486Z,13.40
2019-03-17T17:40:34.810Z,13.40
2019-03-17T17:43:08.072Z,13.30
2019-03-17T17:45:41.359Z,13.30
2019-03-17T17:48:14.907Z,13.40
2019-03-17T17:50:48.271Z,13.60
2019-03-17T17:53:21.612Z,13.50
2019-03-17T17:55:54.994Z,13.80
2019-03-17T17:58:28.467Z,13.50
2019-03-17T18:01:01.829Z,13.40
2019-03-17T18:03:35.244Z,13.90
2019-03-17T18:06:10.074Z,13.60
2019-03-17T18:08:43.499Z,13.40
2019-03-17T18:11:16.894Z,13.30
2019-03-17T18:13:50.307Z,13.30
2019-03-17T18:16:23.703Z,13.10
2019-03-17T18:18:57.033Z,13.00
2019-03-17T18:21:30.356Z,12.80
2019-03-17T18:24:08.133Z,12.50
2019-03-17T18:26:41.536Z,12.30
2019-03-17T18:29:14.879Z,12.00
2019-03-17T18:31:48.258Z,11.80
2019-03-17T18:34:21.580Z,11.50
2019-03-17T18:36:54.925Z,11.40
2019-03-17T18:39:28.375Z,11.20
2019-03-17T18:42:01.785Z,11.20
2019-03-17T18:44:35.230Z,11.00
2019-03-17T18:47:08.622Z,10.70
2019-03-17T18:49:41.970Z,10.70
2019-03-17T18:52:15.377Z,10.60
2019-03-17T18:54:49.219Z,10.40
2019-03-17T18:57:24.823Z,10.30
2019-03-17T19:00:04.428Z,10.20
2019-03-17T19:02:37.762Z,10.10
2019-03-17T19:05:19.588Z,10.00
2019-03-17T19:07:51.995Z,10.00
2019-03-17T19:10:25.315Z,9.90
2019-03-17T19:12:59.874Z,9.80
2019-03-17T19:15:33.323Z,9.70
2019-03-17T19:18:06.694Z,9.60
2019-03-17T19:20:40.112Z,9.50
2019-03-17T19:23:16.241Z,9.50
2019-03-17T19:25:49.632Z,9.40
2019-03-17T19:28:23.185Z,9.40
2019-03-17T19:30:57.632Z,9.30
2019-03-17T19:33:31.033Z,9.20
2019-03-17T19:36:04.581Z,9.30
2019-03-17T19:38:38.045Z,9.20
2019-03-17T19:41:11.368Z,9.20
2019-03-17T19:43:47.501Z,9.10
2019-03-17T19:46:20.913Z,9.00
2019-03-17T19:48:54.331Z,9.00
2019-03-17T19:51:27.670Z,8.90
2019-03-17T19:54:02.470Z,8.90
2019-03-17T19:56:35.921Z,8.80
2019-03-17T19:59:11.635Z,8.80
2019-03-17T20:01:46.804Z,8.80
2019-03-17T20:04:30.010Z,8.70
2019-03-17T20:06:56.308Z,8.60
2019-03-17T20:09:29.698Z,8.70
2019-03-17T20:12:03.107Z,8.80
2019-03-17T20:14:37.930Z,8.70
2019-03-17T20:17:11.315Z,8.70
2019-03-17T20:19:44.691Z,8.70
2019-03-17T20:22:18.013Z,8.60
2019-03-17T20:24:51.420Z,8.80
2019-03-17T20:27:30.691Z,8.80
2019-03-17T20:30:02.769Z,8.80
2019-03-17T20:32:37.157Z,8.80
2019-03-17T20:35:13.554Z,8.80
2019-03-17T20:37:48.125Z,8.90
2019-03-17T20:40:21.553Z,8.80
2019-03-17T20:42:54.866Z,8.80
2019-03-17T20:45:28.449Z,8.90
2019-03-17T20:48:01.933Z,8.90
2019-03-17T20:50:35.283Z,8.90
2019-03-17T20:53:08.676Z,8.90
2019-03-17T20:55:42.213Z,9.00
2019-03-17T20:58:15.613Z,9.00
2019-03-17T21:00:49.575Z,8.80
2019-03-17T21:03:22.945Z,8.80
2019-03-17T21:05:56.811Z,8.80
2019-03-17T21:08:30.223Z,8.60
2019-03-17T21:11:03.615Z,8.50
2019-03-17T21:13:46.680Z,8.50
2019-03-17T21:16:13.191Z,8.50
2019-03-17T21:18:47.484Z,8.40
2019-03-17T21:21:22.341Z,8.50
2019-03-17T21:23:55.787Z,8.40
2019-03-17T21:26:32.156Z,8.40
2019-03-17T21:29:05.576Z,8.30
2019-03-17T21:31:38.953Z,8.30
2019-03-17T21:34:15.154Z,8.20
2019-03-17T21:36:52.176Z,8.20
2019-03-17T21:39:25.603Z,8.20
2019-03-17T21:41:59.333Z,8.20
2019-03-17T21:44:32.726Z,8.30
2019-03-17T21:47:06.184Z,8.30
2019-03-17T21:49:41.093Z,8.30
2019-03-17T21:52:16.335Z,8.40
2019-03-17T21:54:55.743Z,8.50
2019-03-17T21:57:34.043Z,8.50
2019-03-17T22:00:14.153Z,8.50
2019-03-17T22:02:47.567Z,8.40
2019-03-17T22:05:20.991Z,8.40
2019-03-17T22:08:00.473Z,8.40
2019-03-17T22:10:39.937Z,8.40
2019-03-17T22:13:14.463Z,8.50
2019-03-17T22:15:50.845Z,8.40
2019-03-17T22:18:25.033Z,8.40
2019-03-17T22:20:58.462Z,8.30
2019-03-17T22:23:31.835Z,8.30
2019-03-17T22:26:06.052Z,8.30
2019-03-17T22:28:39.297Z,8.20
2019-03-17T22:31:14.176Z,8.10
2019-03-17T22:33:47.536Z,8.20
2019-03-17T22:36:28.112Z,8.10
2019-03-17T22:39:01.565Z,8.20
2019-03-17T22:41:34.944Z,8.20
2019-03-17T22:44:09.510Z,8.20
2019-03-17T22:50:06.535Z,8.40
2019-03-17T22:56:40.873Z,8.90
2019-03-17T23:02:03.495Z,9.80
2019-03-17T23:04:40.367Z,9.90
2019-03-17T23:07:18.630Z,9.90
2019-03-17T23:09:52.053Z,10.00
2019-03-17T23:12:31.854Z,10.00
2019-03-17T23:15:07.363Z,9.90
2019-03-17T23:17:40.569Z,9.80
2019-03-17T23:20:17.573Z,9.70
2019-03-17T23:29:28.437Z,9.40
2019-03-17T23:32:03.950Z,9.20
2019-03-17T23:34:37.326Z,9.10
2019-03-17T23:37:11.883Z,9.10
2019-03-17T23:39:53.474Z,9.00
2019-03-17T23:42:28.385Z,8.90
2019-03-17T23:45:01.605Z,8.80
2019-03-17T23:47:35.095Z,8.70
2019-03-17T23:50:15.947Z,8.60
2019-03-17T23:52:49.289Z,8.50
2019-03-17T23:55:24.148Z,8.50
2019-03-17T23:57:57.423Z,8.40
